createdAt,value
2016-04-18T00:00:34.677Z,9.28
2016-04-18T00:01:34.695Z,9.25
2016-04-18T00:02:34.713Z,9.25
2016-04-18T00:03:34.732Z,9.22
2016-04-18T00:04:34.734Z,9.28
2016-04-18T00:05:34.754Z,9.26
2016-04-18T00:06:34.771Z,9.31
2016-04-18T00:07:34.774Z,9.28
2016-04-18T00:08:34.793Z,9.29
2016-04-18T00:09:34.795Z,9.26
2016-04-18T00:10:34.814Z,9.31
2016-04-18T00:11:34.831Z,9.34
2016-04-18T00:12:34.834Z,9.32
2016-04-18T00:13:34.852Z,9.32
2016-04-18T00:14:34.870Z,9.39
2016-04-18T00:15:35.207Z,9.22
2016-04-18T00:16:34.939Z,9.21
2016-04-18T00:17:35.017Z,9.19
2016-04-18T00:18:35.063Z,9.19
2016-04-18T00:19:34.968Z,9.16
2016-04-18T00:20:35.156Z,9.26
2016-04-18T00:21:34.893Z,9.34
2016-04-18T00:22:35.224Z,9.34
2016-04-18T00:23:35.257Z,9.36
2016-04-18T00:24:35.276Z,9.32
2016-04-18T00:25:35.305Z,9.31
2016-04-18T00:26:35.313Z,9.29
2016-04-18T00:27:35.337Z,9.26
2016-04-18T00:28:35.377Z,9.39
2016-04-18T00:29:35.370Z,9.29
2016-04-18T00:30:35.392Z,9.36
2016-04-18T00:31:35.428Z,9.36
2016-04-18T00:32:35.416Z,9.32
2016-04-18T00:33:35.437Z,9.4
2016-04-18T00:34:35.488Z,9.36
2016-04-18T00:35:35.461Z,9.37
2016-04-18T00:36:35.480Z,9.4
2016-04-18T00:37:35.483Z,9.4
2016-04-18T00:38:35.362Z,9.41
2016-04-18T00:39:35.521Z,9.39
2016-04-18T00:40:35.524Z,9.41
2016-04-18T00:41:35.559Z,9.36
2016-04-18T00:42:35.610Z,9.41
2016-04-18T00:43:35.613Z,9.36
2016-04-18T00:44:35.584Z,9.43
2016-04-18T00:45:35.603Z,9.46
2016-04-18T00:46:35.621Z,9.39
2016-04-18T00:47:35.624Z,9.41
2016-04-18T00:48:35.641Z,9.41
2016-04-18T00:49:35.661Z,9.4
2016-04-18T00:50:35.664Z,9.37
2016-04-18T00:51:35.681Z,9.41
2016-04-18T00:52:35.700Z,9.39
2016-04-18T00:53:35.718Z,9.4
2016-04-18T00:54:35.721Z,9.4
2016-04-18T00:55:35.739Z,9.41
2016-04-18T00:56:35.742Z,9.32
2016-04-18T00:57:35.744Z,9.41
2016-04-18T00:58:35.779Z,9.43
2016-04-18T00:59:35.782Z,9.43
2016-04-18T01:00:35.800Z,9.43
2016-04-18T01:01:35.802Z,9.41
2016-04-18T01:02:35.836Z,9.37
2016-04-18T01:03:35.854Z,9.44
2016-04-18T01:04:35.841Z,9.37
2016-04-18T01:05:35.860Z,9.39
2016-04-18T01:06:35.879Z,9.46
2016-04-18T01:07:35.896Z,9.41
2016-04-18T01:08:35.915Z,9.32
2016-04-18T01:09:35.917Z,9.36
2016-04-18T01:10:35.936Z,9.37
2016-04-18T01:11:35.939Z,9.4
2016-04-18T01:12:35.957Z,9.37
2016-04-18T01:13:35.975Z,9.4
2016-04-18T01:14:35.978Z,9.44
2016-04-18T01:15:35.995Z,9.41
2016-04-18T01:16:35.998Z,9.5
2016-04-18T01:17:36.033Z,9.39
2016-04-18T01:18:36.191Z,9.47
2016-04-18T01:19:36.054Z,9.41
2016-04-18T01:20:36.072Z,9.44
2016-04-18T01:21:36.074Z,9.37
2016-04-18T01:22:36.078Z,9.36
2016-04-18T01:23:36.096Z,9.36
2016-04-18T01:24:36.144Z,9.44
2016-04-18T01:25:36.148Z,9.4
2016-04-18T01:26:36.151Z,9.44
2016-04-18T01:27:36.152Z,9.44
2016-04-18T01:28:36.156Z,9.47
2016-04-18T01:29:36.174Z,9.43
2016-04-18T01:30:36.208Z,9.39
2016-04-18T01:31:36.227Z,9.55
2016-04-18T01:32:36.229Z,9.62
2016-04-18T01:33:36.248Z,9.51
2016-04-18T01:34:36.266Z,9.58
2016-04-18T01:35:36.254Z,9.61
2016-04-18T01:36:36.271Z,9.59
2016-04-18T01:37:36.274Z,9.54
2016-04-18T01:38:36.292Z,9.54
2016-04-18T01:39:36.310Z,9.56
2016-04-18T01:40:36.359Z,9.55
2016-04-18T01:41:36.332Z,9.73
2016-04-18T01:42:36.365Z,9.56
2016-04-18T01:43:36.353Z,9.5
2016-04-18T01:44:36.387Z,9.56
2016-04-18T01:45:36.390Z,9.5
2016-04-18T01:46:36.408Z,9.55
2016-04-18T01:47:36.426Z,9.56
2016-04-18T01:48:36.444Z,9.59
2016-04-18T01:49:36.447Z,9.54
2016-04-18T01:50:36.464Z,9.68
2016-04-18T01:51:36.467Z,9.68
2016-04-18T01:52:36.486Z,9.66
2016-04-18T01:53:36.505Z,9.62
2016-04-18T01:54:36.507Z,9.65
2016-04-18T01:55:36.525Z,9.65
2016-04-18T01:56:36.544Z,9.64
2016-04-18T01:57:36.547Z,9.65
2016-04-18T01:58:36.565Z,9.54
2016-04-18T01:59:36.583Z,9.64
2016-04-18T02:00:36.601Z,9.65
2016-04-18T02:01:36.635Z,9.69
2016-04-18T02:02:36.622Z,9.65
2016-04-18T02:03:36.624Z,9.62
2016-04-18T02:04:36.660Z,9.72
2016-04-18T02:05:36.646Z,9.69
2016-04-18T02:06:36.914Z,9.65
2016-04-18T02:07:37.042Z,9.65
2016-04-18T02:08:51.063Z,9.66
2016-04-18T02:09:37.095Z,9.62
2016-04-18T02:10:37.159Z,9.61
2016-04-18T02:11:37.037Z,9.58
2016-04-18T02:12:36.993Z,9.62
2016-04-18T02:13:37.246Z,9.54
2016-04-18T02:14:37.061Z,9.58
2016-04-18T02:15:37.220Z,9.64
2016-04-18T02:16:37.192Z,9.69
2016-04-18T02:17:37.225Z,9.59
2016-04-18T02:18:36.822Z,9.65
2016-04-18T02:19:36.840Z,9.64
2016-04-18T02:20:36.843Z,9.69
2016-04-18T02:21:36.861Z,9.66
2016-04-18T02:22:36.895Z,9.65
2016-04-18T02:23:36.913Z,9.68
2016-04-18T02:24:36.931Z,9.69
2016-04-18T02:25:36.918Z,9.68
2016-04-18T02:26:36.937Z,9.72
2016-04-18T02:27:36.955Z,9.82
2016-04-18T02:28:36.208Z,9.83
2016-04-18T02:29:36.977Z,9.74
2016-04-18T02:30:36.994Z,9.72
2016-04-18T02:31:37.013Z,9.79
2016-04-18T02:32:37.016Z,9.73
2016-04-18T02:33:37.018Z,9.79
2016-04-18T02:34:37.037Z,9.74
2016-04-18T02:35:37.071Z,9.65
2016-04-18T02:36:37.057Z,9.83
2016-04-18T02:37:37.076Z,9.77
2016-04-18T02:38:37.109Z,9.83
2016-04-18T02:39:37.113Z,9.82
2016-04-18T02:40:37.116Z,9.84
2016-04-18T02:41:37.134Z,9.73
2016-04-18T02:42:37.152Z,9.68
2016-04-18T02:43:37.154Z,9.76
2016-04-18T02:44:37.188Z,9.77
2016-04-18T02:45:37.206Z,9.69
2016-04-18T02:46:37.194Z,9.72
2016-04-18T02:47:37.212Z,9.64
2016-04-18T02:48:37.230Z,9.56
2016-04-18T02:49:37.233Z,9.54
2016-04-18T02:50:37.251Z,9.56
2016-04-18T02:51:37.286Z,9.47
2016-04-18T02:52:37.288Z,9.54
2016-04-18T02:53:37.291Z,9.41
2016-04-18T02:54:37.309Z,9.48
2016-04-18T02:55:37.312Z,9.56
2016-04-18T02:56:37.330Z,9.56
2016-04-18T02:57:37.349Z,9.5
2016-04-18T02:58:37.366Z,9.5
2016-04-18T02:59:37.386Z,9.59
2016-04-18T03:00:37.371Z,9.5
2016-04-18T03:01:37.391Z,9.58
2016-04-18T03:02:37.424Z,9.54
2016-04-18T03:03:37.427Z,9.55
2016-04-18T03:04:37.445Z,9.62
2016-04-18T03:05:37.463Z,9.56
2016-04-18T03:06:37.466Z,9.5
2016-04-18T03:07:37.469Z,9.58
2016-04-18T03:08:37.504Z,9.59
2016-04-18T03:09:37.507Z,9.55
2016-04-18T03:10:37.524Z,9.54
2016-04-18T03:11:37.543Z,9.56
2016-04-18T03:12:37.545Z,9.59
2016-04-18T03:13:37.548Z,9.54
2016-04-18T03:14:37.566Z,9.55
2016-04-18T03:15:37.585Z,9.55
2016-04-18T03:16:37.603Z,9.56
2016-04-18T03:17:37.621Z,9.54
2016-04-18T03:18:37.624Z,9.55
2016-04-18T03:19:37.626Z,9.62
2016-04-18T03:20:37.645Z,9.61
2016-04-18T03:21:37.678Z,9.65
2016-04-18T03:22:37.681Z,9.68
2016-04-18T03:23:37.684Z,9.64
2016-04-18T03:24:37.703Z,9.73
2016-04-18T03:25:37.720Z,9.72
2016-04-18T03:26:37.723Z,9.77
2016-04-18T03:27:37.757Z,9.76
2016-04-18T03:28:37.760Z,9.76
2016-04-18T03:29:37.762Z,9.65
2016-04-18T03:30:37.780Z,9.74
2016-04-18T03:31:37.799Z,9.76
2016-04-18T03:32:37.818Z,9.72
2016-04-18T03:33:37.821Z,9.64
2016-04-18T03:34:37.823Z,9.76
2016-04-18T03:35:37.872Z,9.73
2016-04-18T03:36:37.859Z,9.73
2016-04-18T03:37:37.909Z,9.65
2016-04-18T03:38:37.880Z,9.65
2016-04-18T03:39:37.837Z,9.69
2016-04-18T03:40:37.918Z,9.68
2016-04-18T03:41:37.951Z,9.66
2016-04-18T03:42:37.970Z,9.69
2016-04-18T03:43:37.973Z,9.76
2016-04-18T03:44:37.959Z,9.66
2016-04-18T03:45:37.978Z,9.69
2016-04-18T03:46:37.995Z,9.72
2016-04-18T03:47:38.015Z,9.65
2016-04-18T03:48:38.048Z,9.69
2016-04-18T03:49:38.051Z,9.74
2016-04-18T03:50:38.053Z,9.64
2016-04-18T03:51:38.072Z,9.76
2016-04-18T03:52:38.075Z,9.86
2016-04-18T03:53:38.108Z,9.83
2016-04-18T03:54:38.236Z,9.74
2016-04-18T03:55:38.113Z,9.68
2016-04-18T03:56:38.163Z,9.73
2016-04-18T03:57:38.166Z,9.74
2016-04-18T03:58:38.153Z,9.8
2016-04-18T03:59:38.156Z,9.76
2016-04-18T04:00:38.189Z,9.84
2016-04-18T04:01:38.192Z,9.79
2016-04-18T04:02:38.227Z,9.65
2016-04-18T04:03:38.230Z,9.79
2016-04-18T04:04:38.232Z,9.65
2016-04-18T04:05:38.282Z,9.68
2016-04-18T04:06:38.268Z,9.73
2016-04-18T04:07:38.287Z,9.66
2016-04-18T04:08:38.290Z,9.77
2016-04-18T04:09:38.495Z,9.73
2016-04-18T04:10:38.310Z,9.68
2016-04-18T04:11:38.360Z,9.69
2016-04-18T04:12:38.347Z,9.72
2016-04-18T04:13:38.459Z,9.73
2016-04-18T04:14:38.384Z,9.72
2016-04-18T04:15:38.402Z,9.65
2016-04-18T04:16:38.404Z,9.72
2016-04-18T04:17:38.423Z,9.73
2016-04-18T04:18:38.426Z,9.68
2016-04-18T04:19:38.444Z,9.69
2016-04-18T04:20:38.447Z,9.68
2016-04-18T04:21:38.449Z,9.65
2016-04-18T04:22:38.468Z,9.69
2016-04-18T04:23:38.501Z,9.66
2016-04-18T04:24:38.567Z,9.68
2016-04-18T04:25:38.523Z,9.68
2016-04-18T04:26:38.525Z,9.65
2016-04-18T04:27:38.528Z,9.73
2016-04-18T04:28:38.546Z,9.64
2016-04-18T04:29:38.581Z,9.65
2016-04-18T04:30:38.583Z,9.66
2016-04-18T04:31:38.602Z,9.72
2016-04-18T04:32:38.650Z,9.66
2016-04-18T04:33:38.638Z,9.64
2016-04-18T04:34:38.625Z,9.58
2016-04-18T04:35:38.658Z,9.51
2016-04-18T04:36:38.661Z,9.54
2016-04-18T04:37:38.679Z,9.51
2016-04-18T04:38:38.682Z,9.59
2016-04-18T04:39:38.873Z,9.64
2016-04-18T04:40:38.719Z,9.68
2016-04-18T04:41:38.738Z,9.73
2016-04-18T04:42:38.740Z,9.64
2016-04-18T04:43:38.759Z,9.64
2016-04-18T04:44:38.761Z,9.66
2016-04-18T04:45:38.779Z,9.68
2016-04-18T04:46:38.797Z,9.74
2016-04-18T04:47:38.814Z,9.66
2016-04-18T04:48:38.833Z,9.69
2016-04-18T04:49:38.867Z,9.62
2016-04-18T04:50:38.839Z,9.56
2016-04-18T04:51:38.858Z,9.55
2016-04-18T04:52:38.875Z,9.51
2016-04-18T04:53:38.910Z,9.54
2016-04-18T04:54:39.022Z,9.62
2016-04-18T04:55:38.915Z,9.51
2016-04-18T04:56:38.918Z,9.56
2016-04-18T04:57:38.952Z,9.56
2016-04-18T04:58:38.938Z,9.56
2016-04-18T04:59:38.957Z,9.56
2016-04-18T05:00:38.975Z,9.55
2016-04-18T05:01:38.993Z,9.59
2016-04-18T05:02:38.996Z,9.55
2016-04-18T05:03:39.014Z,9.5
2016-04-18T05:04:39.017Z,9.56
2016-04-18T05:05:39.035Z,9.54
2016-04-18T05:06:39.054Z,9.5
2016-04-18T05:07:39.088Z,9.58
2016-04-18T05:08:39.137Z,9.56
2016-04-18T05:09:39.062Z,9.51
2016-04-18T05:10:39.111Z,9.54
2016-04-18T05:11:39.114Z,9.51
2016-04-18T05:12:39.132Z,9.5
2016-04-18T05:13:39.134Z,9.48
2016-04-18T05:14:39.153Z,9.5
2016-04-18T05:15:39.203Z,9.54
2016-04-18T05:16:39.190Z,9.55
2016-04-18T05:17:39.208Z,9.55
2016-04-18T05:18:39.211Z,9.48
2016-04-18T05:19:39.229Z,9.5
2016-04-18T05:20:39.247Z,9.39
2016-04-18T05:21:39.250Z,9.41
2016-04-18T05:22:39.284Z,9.44
2016-04-18T05:23:39.286Z,9.41
2016-04-18T05:24:39.586Z,9.46
2016-04-18T05:25:39.308Z,9.47
2016-04-18T05:26:39.326Z,9.4
2016-04-18T05:27:39.329Z,9.5
2016-04-18T05:28:39.346Z,9.46
2016-04-18T05:29:39.355Z,9.44
2016-04-18T05:30:39.405Z,9.46
2016-04-18T05:31:39.377Z,9.43
2016-04-18T05:32:39.411Z,9.39
2016-04-18T05:33:39.397Z,9.37
2016-04-18T05:34:39.416Z,9.43
2016-04-18T05:35:39.434Z,9.41
2016-04-18T05:36:39.468Z,9.44
2016-04-18T05:37:39.471Z,9.46
2016-04-18T05:38:39.474Z,9.48
2016-04-18T05:39:39.383Z,9.32
2016-04-18T05:40:39.510Z,9.4
2016-04-18T05:41:39.529Z,9.5
2016-04-18T05:42:39.531Z,9.44
2016-04-18T05:43:39.628Z,9.44
2016-04-18T05:44:39.755Z,9.43
2016-04-18T05:45:39.554Z,9.41
2016-04-18T05:46:39.573Z,9.4
2016-04-18T05:47:39.591Z,9.41
2016-04-18T05:48:39.626Z,9.41
2016-04-18T05:49:39.628Z,9.55
2016-04-18T05:50:39.662Z,9.54
2016-04-18T05:51:39.680Z,9.54
2016-04-18T05:52:39.683Z,9.51
2016-04-18T05:53:39.670Z,9.51
2016-04-18T05:54:40.079Z,9.51
2016-04-18T05:55:39.692Z,9.48
2016-04-18T05:56:39.710Z,9.37
2016-04-18T05:57:39.728Z,9.43
2016-04-18T05:58:39.747Z,9.43
2016-04-18T05:59:39.764Z,9.41
2016-04-18T06:00:39.767Z,9.43
2016-04-18T06:01:39.769Z,9.48
2016-04-18T06:02:39.788Z,9.41
2016-04-18T06:03:39.807Z,9.41
2016-04-18T06:04:39.825Z,9.48
2016-04-18T06:05:39.828Z,9.43
2016-04-18T06:06:39.846Z,9.41
2016-04-18T06:07:39.849Z,9.4
2016-04-18T06:08:39.866Z,9.51
2016-04-18T06:09:39.932Z,9.36
2016-04-18T06:10:39.887Z,9.47
2016-04-18T06:11:39.906Z,9.47
2016-04-18T06:12:39.940Z,9.43
2016-04-18T06:13:39.927Z,9.43
2016-04-18T06:14:39.962Z,9.37
2016-04-18T06:15:39.964Z,9.39
2016-04-18T06:16:39.967Z,9.36
2016-04-18T06:17:40.000Z,9.31
2016-04-18T06:18:40.004Z,9.31
2016-04-18T06:19:40.021Z,9.36
2016-04-18T06:20:40.040Z,9.29
2016-04-18T06:21:40.042Z,9.37
2016-04-18T06:22:40.045Z,9.44
2016-04-18T06:23:40.063Z,9.4
2016-04-18T06:24:39.956Z,9.43
2016-04-18T06:25:40.100Z,9.4
2016-04-18T06:26:40.119Z,9.43
2016-04-18T06:27:40.168Z,9.39
2016-04-18T06:28:40.124Z,9.32
2016-04-18T06:29:40.142Z,9.41
2016-04-18T06:30:40.161Z,9.46
2016-04-18T06:31:40.178Z,9.51
2016-04-18T06:32:40.197Z,9.46
2016-04-18T06:33:40.199Z,9.47
2016-04-18T06:34:40.234Z,9.51
2016-04-18T06:35:40.236Z,9.46
2016-04-18T06:36:40.239Z,9.5
2016-04-18T06:37:40.242Z,9.5
2016-04-18T06:38:40.276Z,9.5
2016-04-18T06:39:40.278Z,9.5
2016-04-18T06:40:40.282Z,9.51
2016-04-18T06:41:40.299Z,9.54
2016-04-18T06:42:40.318Z,9.51
2016-04-18T06:43:40.336Z,9.51
2016-04-18T06:44:40.338Z,9.51
2016-04-18T06:45:40.357Z,9.55
2016-04-18T06:46:40.390Z,9.5
2016-04-18T06:47:40.940Z,9.58
2016-04-18T06:48:40.256Z,9.51
2016-04-18T06:49:40.446Z,9.62
2016-04-18T06:50:40.434Z,9.59
2016-04-18T06:51:40.436Z,9.73
2016-04-18T06:52:40.470Z,9.69
2016-04-18T06:53:40.456Z,9.68
2016-04-18T06:54:40.475Z,9.76
2016-04-18T06:55:40.493Z,9.68
2016-04-18T06:56:40.528Z,9.68
2016-04-18T06:57:40.514Z,9.68
2016-04-18T06:58:40.517Z,9.72
2016-04-18T06:59:40.550Z,9.68
2016-04-18T07:00:40.569Z,9.64
2016-04-18T07:01:40.555Z,9.64
2016-04-18T07:02:40.574Z,9.66
2016-04-18T07:03:40.593Z,9.66
2016-04-18T07:04:40.610Z,9.73
2016-04-18T07:05:40.629Z,9.66
2016-04-18T07:06:40.632Z,9.74
2016-04-18T07:07:40.650Z,9.68
2016-04-18T07:08:40.669Z,9.69
2016-04-18T07:09:40.672Z,9.65
2016-04-18T07:10:40.690Z,9.61
2016-04-18T07:11:40.708Z,9.69
2016-04-18T07:12:40.726Z,9.68
2016-04-18T07:13:40.916Z,9.77
2016-04-18T07:14:40.731Z,9.8
2016-04-18T07:15:40.751Z,9.89
2016-04-18T07:16:40.784Z,9.86
2016-04-18T07:17:40.787Z,9.92
2016-04-18T07:18:40.789Z,9.92
2016-04-18T07:19:40.807Z,9.79
2016-04-18T07:20:40.825Z,9.87
2016-04-18T07:21:40.836Z,9.87
2016-04-18T07:22:40.838Z,9.89
2016-04-18T07:23:40.856Z,9.97
2016-04-18T07:24:40.891Z,9.89
2016-04-18T07:25:40.925Z,9.98
2016-04-18T07:26:40.896Z,9.98
2016-04-18T07:27:41.024Z,9.94
2016-04-18T07:28:40.917Z,10.02
2016-04-18T07:29:40.935Z,10.01
2016-04-18T07:30:40.954Z,10.05
2016-04-18T07:31:40.988Z,10.13
2016-04-18T07:32:40.990Z,10.1
2016-04-18T07:33:40.993Z,10.13
2016-04-18T07:34:40.996Z,10.07
2016-04-18T07:35:41.029Z,10.07
2016-04-18T07:36:41.032Z,10.13
2016-04-18T07:37:41.050Z,10.16
2016-04-18T07:38:41.068Z,10.17
2016-04-18T07:39:41.087Z,10.15
2016-04-18T07:40:41.089Z,10.1
2016-04-18T07:41:41.108Z,10.12
2016-04-18T07:42:41.126Z,10.1
2016-04-18T07:43:41.128Z,10.16
2016-04-18T07:44:41.131Z,10.09
2016-04-18T07:45:41.150Z,10.02
2016-04-18T07:46:41.199Z,10.09
2016-04-18T07:47:41.202Z,10.02
2016-04-18T07:48:41.220Z,10.05
2016-04-18T07:49:41.223Z,10.12
2016-04-18T07:50:41.258Z,9.99
2016-04-18T07:51:41.245Z,10.02
2016-04-18T07:52:41.450Z,10.05
2016-04-18T07:53:41.281Z,10.13
2016-04-18T07:54:41.283Z,10.19
2016-04-18T07:55:41.286Z,10.28
2016-04-18T07:56:41.319Z,10.19
2016-04-18T07:57:41.322Z,10.19
2016-04-18T07:58:41.341Z,10.2
2016-04-18T07:59:41.344Z,10.22
2016-04-18T08:00:41.362Z,10.22
2016-04-18T08:01:41.412Z,10.22
2016-04-18T08:02:41.992Z,10.28
2016-04-18T08:03:41.402Z,10.3
2016-04-18T08:04:41.404Z,10.23
2016-04-18T08:05:41.423Z,10.2
2016-04-18T08:06:41.440Z,10.34
2016-04-18T08:07:41.459Z,10.28
2016-04-18T08:08:41.477Z,10.3
2016-04-18T08:09:41.512Z,10.28
2016-04-18T08:10:41.498Z,10.34
2016-04-18T08:11:41.501Z,10.3
2016-04-18T08:12:41.378Z,10.3
2016-04-18T08:13:41.553Z,10.3
2016-04-18T08:14:41.556Z,10.34
2016-04-18T08:15:41.574Z,10.28
2016-04-18T08:16:41.577Z,10.33
2016-04-18T08:17:41.595Z,10.28
2016-04-18T08:18:41.614Z,10.23
2016-04-18T08:19:41.647Z,10.31
2016-04-18T08:20:41.635Z,10.3
2016-04-18T08:21:41.684Z,10.35
2016-04-18T08:22:41.687Z,10.28
2016-04-18T08:23:41.675Z,10.35
2016-04-18T08:24:41.693Z,10.26
2016-04-18T08:25:41.711Z,10.26
2016-04-18T08:26:41.713Z,10.44
2016-04-18T08:27:41.732Z,10.37
2016-04-18T08:28:41.749Z,10.37
2016-04-18T08:29:41.768Z,10.42
2016-04-18T08:30:41.771Z,10.31
2016-04-18T08:31:41.789Z,10.34
2016-04-18T08:32:41.824Z,10.41
2016-04-18T08:33:41.811Z,10.31
2016-04-18T08:34:41.844Z,10.37
2016-04-18T08:35:41.846Z,10.41
2016-04-18T08:36:41.850Z,10.33
2016-04-18T08:37:41.915Z,10.34
2016-04-18T08:38:41.887Z,10.4
2016-04-18T08:39:41.921Z,10.31
2016-04-18T08:40:41.907Z,10.28
2016-04-18T08:41:41.910Z,10.26
2016-04-18T08:42:41.943Z,10.34
2016-04-18T08:43:41.962Z,10.46
2016-04-18T08:44:41.965Z,10.48
2016-04-18T08:45:41.968Z,10.48
2016-04-18T08:46:42.001Z,10.44
2016-04-18T08:47:42.004Z,10.56
2016-04-18T08:48:42.022Z,10.42
2016-04-18T08:49:42.025Z,10.51
2016-04-18T08:50:42.044Z,10.54
2016-04-18T08:51:42.062Z,10.53
2016-04-18T08:52:42.081Z,10.51
2016-04-18T08:53:42.083Z,10.51
2016-04-18T08:54:42.101Z,10.49
2016-04-18T08:55:42.198Z,10.51
2016-04-18T08:56:42.122Z,10.63
2016-04-18T08:57:42.140Z,10.59
2016-04-18T08:58:42.174Z,10.61
2016-04-18T08:59:42.177Z,10.64
2016-04-18T09:00:42.195Z,10.64
2016-04-18T09:01:42.199Z,10.67
2016-04-18T09:02:42.216Z,10.72
2016-04-18T09:03:42.672Z,10.71
2016-04-18T09:04:42.893Z,10.76
2016-04-18T09:05:44.381Z,10.68
2016-04-18T09:06:43.337Z,10.71
2016-04-18T09:07:42.308Z,10.64
2016-04-18T09:08:42.296Z,10.53
2016-04-18T09:09:42.314Z,10.51
2016-04-18T09:10:42.331Z,10.51
2016-04-18T09:11:42.318Z,10.59
2016-04-18T09:12:42.369Z,10.63
2016-04-18T09:13:42.370Z,10.67
2016-04-18T09:14:42.437Z,10.6
2016-04-18T09:15:42.392Z,10.56
2016-04-18T09:16:42.410Z,10.53
2016-04-18T09:17:42.584Z,10.53
2016-04-18T09:18:42.431Z,10.61
2016-04-18T09:19:42.450Z,10.51
2016-04-18T09:20:42.468Z,10.6
2016-04-18T09:21:42.839Z,10.63
2016-04-18T09:22:42.572Z,10.61
2016-04-18T09:23:42.617Z,10.57
2016-04-18T09:24:42.662Z,10.63
2016-04-18T09:25:42.892Z,10.61
2016-04-18T09:26:42.765Z,10.56
2016-04-18T09:27:42.830Z,10.61
2016-04-18T09:28:42.849Z,10.61
2016-04-18T09:29:42.850Z,10.61
2016-04-18T09:30:42.900Z,10.54
2016-04-18T09:31:44.959Z,10.51
2016-04-18T09:32:44.967Z,10.49
2016-04-18T09:33:44.115Z,10.49
2016-04-18T09:34:42.967Z,10.4
2016-04-18T09:35:43.007Z,10.46
2016-04-18T09:36:43.060Z,10.4
2016-04-18T09:37:43.032Z,10.3
2016-04-18T09:38:44.663Z,10.33
2016-04-18T09:39:45.088Z,10.26
2016-04-18T09:40:43.125Z,10.23
2016-04-18T09:41:43.082Z,10.33
2016-04-18T09:42:44.820Z,10.34
2016-04-18T09:43:44.448Z,10.38
2016-04-18T09:44:43.139Z,10.3
2016-04-18T09:45:43.143Z,10.31
2016-04-18T09:46:43.146Z,10.41
2016-04-18T09:47:43.164Z,10.37
2016-04-18T09:48:43.198Z,10.44
2016-04-18T09:49:43.200Z,10.37
2016-04-18T09:50:43.218Z,10.56
2016-04-18T09:51:43.237Z,10.49
2016-04-18T09:52:43.240Z,10.44
2016-04-18T09:53:43.257Z,10.4
2016-04-18T09:54:43.260Z,10.34
2016-04-18T09:55:43.326Z,10.41
2016-04-18T09:56:43.298Z,10.31
2016-04-18T09:57:43.301Z,10.26
2016-04-18T09:58:43.334Z,10.16
2016-04-18T09:59:43.337Z,10.22
2016-04-18T10:00:43.355Z,10.26
2016-04-18T10:01:43.373Z,10.25
2016-04-18T10:02:43.376Z,10.2
2016-04-18T10:03:43.409Z,10.26
2016-04-18T10:04:43.397Z,10.25
2016-04-18T10:05:43.415Z,10.19
2016-04-18T10:06:43.434Z,10.33
2016-04-18T10:07:43.453Z,10.31
2016-04-18T10:08:43.470Z,10.28
2016-04-18T10:09:43.504Z,10.37
2016-04-18T10:10:43.648Z,10.3
2016-04-18T10:11:43.509Z,10.34
2016-04-18T10:12:43.515Z,10.34
2016-04-18T10:13:43.550Z,10.41
2016-04-18T10:14:43.567Z,10.3
2016-04-18T10:15:43.570Z,10.34
2016-04-18T10:16:43.573Z,10.25
2016-04-18T10:17:43.623Z,10.3
2016-04-18T10:18:43.610Z,10.28
2016-04-18T10:19:43.627Z,10.31
2016-04-18T10:20:43.630Z,10.48
2016-04-18T10:21:43.649Z,10.48
2016-04-18T10:22:43.652Z,10.64
2016-04-18T10:23:43.669Z,10.6
2016-04-18T10:24:43.704Z,10.68
2016-04-18T10:25:43.597Z,10.72
2016-04-18T10:26:43.724Z,10.71
2016-04-18T10:27:45.118Z,10.84
2016-04-18T10:28:43.746Z,10.81
2016-04-18T10:29:43.765Z,10.87
2016-04-18T10:30:43.782Z,10.99
2016-04-18T10:31:43.785Z,10.92
2016-04-18T10:32:43.803Z,10.84
2016-04-18T10:33:43.837Z,10.97
2016-04-18T10:34:45.449Z,10.99
2016-04-18T10:35:44.812Z,11.1
2016-04-18T10:36:43.877Z,11.11
2016-04-18T10:37:43.864Z,10.97
2016-04-18T10:38:43.898Z,11.02
2016-04-18T10:39:43.916Z,11.08
2016-04-18T10:40:44.170Z,11.1
2016-04-18T10:41:43.921Z,11.11
2016-04-18T10:42:43.939Z,11.22
2016-04-18T10:43:44.067Z,11.26
2016-04-18T10:44:43.992Z,11.33
2016-04-18T10:45:43.994Z,11.41
2016-04-18T10:46:44.014Z,11.48
2016-04-18T10:47:44.031Z,11.52
2016-04-18T10:48:44.034Z,11.47
2016-04-18T10:49:44.053Z,11.54
2016-04-18T10:50:44.056Z,11.43
2016-04-18T10:51:44.073Z,11.47
2016-04-18T10:52:44.091Z,11.48
2016-04-18T10:53:44.110Z,11.51
2016-04-18T10:54:44.175Z,11.55
2016-04-18T10:55:44.177Z,11.66
2016-04-18T10:56:44.696Z,11.72
2016-04-18T10:57:44.168Z,11.75
2016-04-18T10:58:44.185Z,11.88
2016-04-18T10:59:44.205Z,11.84
2016-04-18T11:00:44.207Z,11.8
2016-04-18T11:01:44.241Z,11.87
2016-04-18T11:02:44.243Z,11.99
2016-04-18T11:03:44.262Z,12.02
2016-04-18T11:04:44.279Z,11.84
2016-04-18T11:05:44.298Z,11.9
2016-04-18T11:06:44.301Z,11.84
2016-04-18T11:07:44.319Z,11.99
2016-04-18T11:08:44.322Z,11.94
2016-04-18T11:09:44.387Z,12.06
2016-04-18T11:10:44.593Z,12.07
2016-04-18T11:11:44.392Z,11.97
2016-04-18T11:12:44.380Z,12.12
2016-04-18T11:13:44.429Z,12.25
2016-04-18T11:14:44.431Z,12.31
2016-04-18T11:15:44.435Z,12.29
2016-04-18T11:16:44.469Z,12.28
2016-04-18T11:17:44.472Z,12.31
2016-04-18T11:18:44.489Z,12.32
2016-04-18T11:19:44.508Z,12.37
2016-04-18T11:20:44.527Z,12.46
2016-04-18T11:21:44.607Z,12.47
2016-04-18T11:22:44.454Z,12.47
2016-04-18T11:23:44.566Z,12.49
2016-04-18T11:24:44.584Z,12.46
2016-04-18T11:25:44.618Z,12.45
2016-04-18T11:26:44.621Z,12.47
2016-04-18T11:27:44.638Z,12.35
2016-04-18T11:28:44.642Z,12.29
2016-04-18T11:29:44.660Z,12.24
2016-04-18T11:30:44.678Z,12.22
2016-04-18T11:31:44.712Z,12.28
2016-04-18T11:32:46.855Z,12.28
2016-04-18T11:33:44.718Z,12.32
2016-04-18T11:34:44.736Z,12.42
2016-04-18T11:35:44.738Z,12.36
2016-04-18T11:36:44.756Z,12.46
2016-04-18T11:37:44.790Z,12.37
2016-04-18T11:38:44.793Z,12.29
2016-04-18T11:39:44.796Z,12.24
2016-04-18T11:40:44.768Z,12.21
2016-04-18T11:41:44.833Z,12.12
2016-04-18T11:42:44.851Z,12.07
2016-04-18T11:43:44.869Z,12.09
2016-04-18T11:44:44.872Z,12.12
2016-04-18T11:45:44.906Z,12.12
2016-04-18T11:46:44.909Z,12.09
2016-04-18T11:47:45.130Z,12.12
2016-04-18T11:48:44.945Z,12.18
2016-04-18T11:49:44.964Z,12.35
2016-04-18T11:50:44.982Z,12.36
2016-04-18T11:51:45.000Z,12.4
2016-04-18T11:52:45.019Z,12.54
2016-04-18T11:53:45.037Z,12.58
2016-04-18T11:54:45.228Z,12.62
2016-04-18T11:55:45.058Z,12.75
2016-04-18T11:56:45.061Z,13.03
2016-04-18T11:57:45.079Z,13.33
2016-04-18T11:58:45.113Z,13.46
2016-04-18T11:59:45.115Z,13.62
2016-04-18T12:00:45.149Z,13.75
2016-04-18T12:01:45.152Z,13.77
2016-04-18T12:02:45.155Z,13.89
2016-04-18T12:03:45.188Z,14
2016-04-18T12:04:45.208Z,14.18
2016-04-18T12:05:45.209Z,14.22
2016-04-18T12:06:45.228Z,14.33
2016-04-18T12:07:45.246Z,14.35
2016-04-18T12:08:45.265Z,14.59
2016-04-18T12:09:45.284Z,14.62
2016-04-18T12:10:45.301Z,14.81
2016-04-18T12:11:45.320Z,14.79
2016-04-18T12:12:45.338Z,14.62
2016-04-18T12:13:45.340Z,14.66
2016-04-18T12:14:45.375Z,14.55
2016-04-18T12:15:45.392Z,14.53
2016-04-18T12:16:45.395Z,14.54
2016-04-18T12:17:45.430Z,14.54
2016-04-18T12:18:45.432Z,14.54
2016-04-18T12:19:45.450Z,14.53
2016-04-18T12:20:45.469Z,14.55
2016-04-18T12:21:45.487Z,14.54
2016-04-18T12:22:45.505Z,14.48
2016-04-18T12:23:45.509Z,14.45
2016-04-18T12:24:45.541Z,14.47
2016-04-18T12:25:45.576Z,14.41
2016-04-18T12:26:45.580Z,14.59
2016-04-18T12:27:45.597Z,14.47
2016-04-18T12:28:45.616Z,14.47
2016-04-18T12:29:45.650Z,14.44
2016-04-18T12:30:45.652Z,14.55
2016-04-18T12:31:45.671Z,14.54
2016-04-18T12:32:45.674Z,14.55
2016-04-18T12:33:45.691Z,14.58
2016-04-18T12:34:45.726Z,14.62
2016-04-18T12:35:45.744Z,14.51
2016-04-18T12:36:45.746Z,14.51
2016-04-18T12:37:45.796Z,14.58
2016-04-18T12:38:45.783Z,14.58
2016-04-18T12:39:45.817Z,14.55
2016-04-18T12:40:45.820Z,14.55
2016-04-18T12:41:45.838Z,14.5
2016-04-18T12:42:45.856Z,14.51
2016-04-18T12:43:45.953Z,14.58
2016-04-18T12:44:45.940Z,14.6
2016-04-18T12:45:45.895Z,14.58
2016-04-18T12:46:45.914Z,14.58
2016-04-18T12:47:45.932Z,14.59
2016-04-18T12:48:45.951Z,14.54
2016-04-18T12:49:45.969Z,14.62
2016-04-18T12:50:46.003Z,14.6
2016-04-18T12:51:46.006Z,14.66
2016-04-18T12:52:46.024Z,14.59
2016-04-18T12:53:46.042Z,14.54
2016-04-18T12:54:46.060Z,14.6
2016-04-18T12:55:46.078Z,14.69
2016-04-18T12:56:46.097Z,14.69
2016-04-18T12:57:45.974Z,14.77
2016-04-18T12:58:46.150Z,14.73
2016-04-18T12:59:46.293Z,14.7
2016-04-18T13:00:46.170Z,14.7
2016-04-18T13:01:46.189Z,14.77
2016-04-18T13:02:46.191Z,14.81
2016-04-18T13:03:46.210Z,14.81
2016-04-18T13:04:46.244Z,14.85
2016-04-18T13:05:46.262Z,14.91
2016-04-18T13:06:46.264Z,14.88
2016-04-18T13:07:46.283Z,14.89
2016-04-18T13:08:46.301Z,14.84
2016-04-18T13:09:46.335Z,14.92